Suederoog — ZDHC8 — position and weather

sailwx.info

Track history (hours):
 
Tides and Currents Weather Stations Pressure Air Temp Water Temp Dewpoint Dewpoint Depression Visibility Wind Speed Wind Dir Waves Ship Positions

Suederoog

Last reported at 2014-Dec-22 10:33 UTC. Time now 2014-Dec-22 11:19 UTC.
Position N 53°32' E 009°55'.

Length 161 m; draft 8.6 m.

Type: Cargo ship. MMSI: 236300000.

Date/timePositionNaut miles runAvg speedWind from/ knotsBaromVisibWave heightAir tempDewpointWater temp
2014-Dec-22 10:33N 53°32' E 009°55'0 0.0
2014-Dec-22 09:31N 53°32' E 009°55'0 0.0
2014-Dec-22 08:31N 53°32' E 009°55'0 0.0
2014-Dec-22 07:29N 53°32' E 009°55'0 0.0
2014-Dec-22 06:29N 53°32' E 009°55'1 0.8
2014-Dec-22 05:33N 53°33' E 009°55'1 1.3
2014-Dec-22 04:30N 53°32' E 009°57'0 0.0
2014-Dec-22 03:30N 53°32' E 009°57'0 0.0
2014-Dec-22 02:33N 53°32' E 009°57'0 0.0
2014-Dec-22 01:33N 53°32' E 009°57'0 0.0
2014-Dec-22 00:33N 53°32' E 009°57'0 0.0
2014-Dec-21 23:33N 53°32' E 009°57'0 0.0
2014-Dec-21 22:33N 53°32' E 009°57'0 0.0
2014-Dec-21 21:22N 53°32' E 009°57'0 0.0
2014-Dec-21 20:33N 53°32' E 009°57'0 0.0
2014-Dec-21 19:33N 53°32' E 009°57'0 0.0
2014-Dec-21 18:30N 53°32' E 009°57'0 0.0
2014-Dec-21 17:33N 53°32' E 009°57'0 0.0
2014-Dec-21 16:33N 53°32' E 009°57'0 0.0
2014-Dec-21 15:31N 53°32' E 009°57'0 0.0
2014-Dec-21 14:31N 53°32' E 009°57'0 0.0
2014-Dec-21 13:31N 53°32' E 009°57'0 0.0
2014-Dec-21 12:31N 53°32' E 009°57'6 6.5
2014-Dec-21 11:33N 53°33' E 009°47'1414.0
2014-Dec-21 10:33N 53°43' E 009°29'1616.0
2014-Dec-21 09:34N 53°53' E 009°08'1 1.1
2014-Dec-21 08:33N 53°54' E 009°09'2 2.0
2014-Dec-21 07:33N 53°55' E 009°12'5 5.1
2014-Dec-21 06:33N 53°59' E 009°17'7 6.8
2014-Dec-21 05:33N 54°06' E 009°20'6 6.3
2014-Dec-21 04:33N 54°10' E 009°27'7 6.7
2014-Dec-21 03:30N 54°15' E 009°37'6 6.0
2014-Dec-21 02:33N 54°19' E 009°43'4 3.8
2014-Dec-21 01:33N 54°22' E 009°47'6 5.9
2014-Dec-21 00:33N 54°21' E 009°57'4 3.7
2014-Dec-20 23:33N 54°22' E 010°03'3 2.5
2014-Dec-20 22:15N 54°22' E 010°09'3 4.2
2014-Dec-20 21:33N 54°24' E 010°12'1010.4
2014-Dec-20 20:34N 54°32' E 010°25'1211.8
2014-Dec-20 19:34N 54°35' E 010°44'1414.3
2014-Dec-20 18:33N 54°37' E 011°09'1414.1
2014-Dec-20 17:34N 54°31' E 011°31'1414.2
2014-Dec-20 16:34N 54°27' E 011°54'1312.0
2014-Dec-20 15:31N 54°32' E 012°14'6112.2
2014-Dec-20 10:30N 55°01' E 013°47'9 9.6
2014-Dec-20 09:33N 55°04' E 014°02'9 9.1
2014-Dec-20 08:33N 55°10' E 014°13'1010.3
2014-Dec-20 07:33N 55°18' E 014°25'1010.4
2014-Dec-20 06:33N 55°26' E 014°36'9 9.0
2014-Dec-20 05:33N 55°31' E 014°50'9 9.3
2014-Dec-20 04:34N 55°35' E 015°04'10 9.6
2014-Dec-20 03:33N 55°40' E 015°19'37614.3
2014-Dec-19 01:14N 59°46' E 024°11'1116.6
2014-Dec-19 00:33N 59°48' E 024°33'6015.0
2014-Dec-18 20:33N 60°12' E 026°23'1313.2
2014-Dec-18 19:33N 60°22' E 026°41'7 7.1
2014-Dec-18 18:31N 60°25' E 026°55'0 0.0
2014-Dec-18 17:31N 60°25' E 026°55'0 0.0
2014-Dec-18 16:31N 60°25' E 026°55'0 0.0
2014-Dec-18 15:31N 60°25' E 026°55'0 0.0
2014-Dec-18 14:31N 60°25' E 026°55'0 0.0
2014-Dec-18 13:31N 60°25' E 026°55'0 0.0
2014-Dec-18 12:31N 60°25' E 026°55'0 0.0
2014-Dec-18 11:32N 60°25' E 026°55'0 0.0
2014-Dec-18 10:32N 60°25' E 026°55'0 0.0
2014-Dec-18 09:32N 60°25' E 026°55'0 0.0
2014-Dec-18 08:31N 60°25' E 026°55'0 0.0
2014-Dec-18 07:31N 60°25' E 026°55'0 0.0
2014-Dec-18 06:31N 60°25' E 026°55'0 0.0
2014-Dec-18 05:31N 60°25' E 026°55'0 0.0
2014-Dec-18 04:31N 60°25' E 026°55'0 0.0
2014-Dec-18 03:31N 60°25' E 026°55'0 0.0
2014-Dec-18 02:31N 60°25' E 026°55'0 0.0
2014-Dec-18 01:31N 60°25' E 026°55'0 0.0
2014-Dec-18 00:31N 60°25' E 026°55'0 0.0
2014-Dec-17 23:31N 60°25' E 026°55'0 0.0
2014-Dec-17 22:31N 60°25' E 026°55'7 7.2
2014-Dec-17 21:34N 60°22' E 026°42'1414.3
2014-Dec-17 20:33N 60°12' E 026°23'1111.1
2014-Dec-17 19:33N 60°04' E 026°39'10710.3
2014-Dec-17 09:05N 59°53' E 030°12'0 0.0
2014-Dec-17 04:06N 59°53' E 030°12'0 0.0
2014-Dec-16 23:24N 59°53' E 030°12'0 0.0
2014-Dec-16 22:12N 59°53' E 030°12'0 0.0
2014-Dec-16 21:18N 59°53' E 030°12'0 0.0
2014-Dec-16 20:30N 59°53' E 030°12'0 0.0
2014-Dec-16 19:25N 59°53' E 030°12'0 0.0
2014-Dec-16 18:31N 59°53' E 030°12'0 0.0
2014-Dec-16 17:31N 59°53' E 030°12'0 0.0
2014-Dec-16 16:04N 59°53' E 030°12'0 0.0
2014-Dec-16 15:26N 59°53' E 030°12'1 1.3
2014-Dec-16 14:33N 59°54' E 030°14'0 0.0
2014-Dec-16 12:22N 59°54' E 030°14'0 0.0
2014-Dec-16 06:31N 59°54' E 030°14'90 3.7
2014-Dec-15 06:09N 60°01' E 027°15'711.0
2014-Dec-15 05:29N 59°58' E 027°02'1011.1
2014-Dec-15 04:33N 59°59' E 026°42'1111.3
2014-Dec-15 03:33N 59°57' E 026°20'5711.3
2014-Dec-14 22:33N 59°44' E 024°30'1211.4
2014-Dec-14 21:32N 59°41' E 024°08'1311.5
2014-Dec-14 20:26N 59°37' E 023°44'1111.8
2014-Dec-14 19:32N 59°33' E 023°25'36215.1
2014-Dec-13 19:33N 55°31' E 015°04'1717.5
2014-Dec-13 18:33N 55°22' E 014°37'1817.6
2014-Dec-13 17:33N 55°09' E 014°18'1716.8
2014-Dec-13 16:33N 54°59' E 013°54'6117.3
2014-Dec-13 13:03N 54°36' E 012°17'1416.6
2014-Dec-13 12:14N 54°25' E 012°04'5218.0
2014-Dec-13 09:22N 54°34' E 010°36'1215.2
2014-Dec-13 08:33N 54°28' E 010°17'8 7.6
2014-Dec-13 07:30N 54°22' E 010°08'3 2.7
2014-Dec-13 06:33N 54°22' E 010°04'6 5.7
2014-Dec-13 05:33N 54°21' E 009°54'6 5.8
2014-Dec-13 04:32N 54°20' E 009°45'7 6.2
2014-Dec-13 03:26N 54°15' E 009°37'5 5.2
2014-Dec-13 02:32N 54°11' E 009°32'7 6.1
2014-Dec-13 01:22N 54°08' E 009°21'5 6.8
2014-Dec-13 00:34N 54°03' E 009°18'7 6.9
2014-Dec-12 23:34N 53°57' E 009°14'3 2.8
2014-Dec-12 22:34N 53°55' E 009°11'2 1.9
2014-Dec-12 21:33N 53°53' E 009°08'5 5.0
2014-Dec-12 20:33N 53°52' E 009°16'1616.1
2014-Dec-12 19:34N 53°39' E 009°31'1212.4
2014-Dec-12 18:33N 53°33' E 009°50'4 4.3
2014-Dec-12 17:31N 53°32' E 009°57'0 0.0
2014-Dec-12 16:31N 53°32' E 009°57'0 0.0
2014-Dec-12 15:28N 53°32' E 009°57'0 0.0
2014-Dec-12 14:28N 53°32' E 009°57'0 0.0
2014-Dec-12 13:31N 53°32' E 009°57'0 0.0
2014-Dec-12 12:33N 53°32' E 009°57'0 0.0
2014-Dec-12 11:28N 53°32' E 009°57'  
Track history (hours):
 
Tides and Currents Weather Stations Pressure Air Temp Water Temp Dewpoint Dewpoint Depression Visibility Wind Speed Wind Dir Waves Ship Positions

Suederoog

Last reported at 2014-Dec-22 10:33 UTC. Time now 2014-Dec-22 11:19 UTC.
Position N 53°32' E 009°55'.

Length 161 m; draft 8.6 m.

Type: Cargo ship. MMSI: 236300000.

Date/timePositionNaut miles runAvg speedWind from/ knotsBaromVisibWave heightAir tempDewpointWater temp
2014-Dec-22 10:33N 53°32' E 009°55'0 0.0
2014-Dec-22 09:31N 53°32' E 009°55'0 0.0
2014-Dec-22 08:31N 53°32' E 009°55'0 0.0
2014-Dec-22 07:29N 53°32' E 009°55'0 0.0
2014-Dec-22 06:29N 53°32' E 009°55'1 0.8
2014-Dec-22 05:33N 53°33' E 009°55'1 1.3
2014-Dec-22 04:30N 53°32' E 009°57'0 0.0
2014-Dec-22 03:30N 53°32' E 009°57'0 0.0
2014-Dec-22 02:33N 53°32' E 009°57'0 0.0
2014-Dec-22 01:33N 53°32' E 009°57'0 0.0
2014-Dec-22 00:33N 53°32' E 009°57'0 0.0
2014-Dec-21 23:33N 53°32' E 009°57'0 0.0
2014-Dec-21 22:33N 53°32' E 009°57'0 0.0
2014-Dec-21 21:22N 53°32' E 009°57'0 0.0
2014-Dec-21 20:33N 53°32' E 009°57'0 0.0
2014-Dec-21 19:33N 53°32' E 009°57'0 0.0
2014-Dec-21 18:30N 53°32' E 009°57'0 0.0
2014-Dec-21 17:33N 53°32' E 009°57'0 0.0
2014-Dec-21 16:33N 53°32' E 009°57'0 0.0
2014-Dec-21 15:31N 53°32' E 009°57'0 0.0
2014-Dec-21 14:31N 53°32' E 009°57'0 0.0
2014-Dec-21 13:31N 53°32' E 009°57'0 0.0
2014-Dec-21 12:31N 53°32' E 009°57'6 6.5
2014-Dec-21 11:33N 53°33' E 009°47'1414.0
2014-Dec-21 10:33N 53°43' E 009°29'1616.0
2014-Dec-21 09:34N 53°53' E 009°08'1 1.1
2014-Dec-21 08:33N 53°54' E 009°09'2 2.0
2014-Dec-21 07:33N 53°55' E 009°12'5 5.1
2014-Dec-21 06:33N 53°59' E 009°17'7 6.8
2014-Dec-21 05:33N 54°06' E 009°20'6 6.3
2014-Dec-21 04:33N 54°10' E 009°27'7 6.7
2014-Dec-21 03:30N 54°15' E 009°37'6 6.0
2014-Dec-21 02:33N 54°19' E 009°43'4 3.8
2014-Dec-21 01:33N 54°22' E 009°47'6 5.9
2014-Dec-21 00:33N 54°21' E 009°57'4 3.7
2014-Dec-20 23:33N 54°22' E 010°03'3 2.5
2014-Dec-20 22:15N 54°22' E 010°09'3 4.2
2014-Dec-20 21:33N 54°24' E 010°12'1010.4
2014-Dec-20 20:34N 54°32' E 010°25'1211.8
2014-Dec-20 19:34N 54°35' E 010°44'1414.3
2014-Dec-20 18:33N 54°37' E 011°09'1414.1
2014-Dec-20 17:34N 54°31' E 011°31'1414.2
2014-Dec-20 16:34N 54°27' E 011°54'1312.0
2014-Dec-20 15:31N 54°32' E 012°14'6112.2
2014-Dec-20 10:30N 55°01' E 013°47'9 9.6
2014-Dec-20 09:33N 55°04' E 014°02'9 9.1
2014-Dec-20 08:33N 55°10' E 014°13'1010.3
2014-Dec-20 07:33N 55°18' E 014°25'1010.4
2014-Dec-20 06:33N 55°26' E 014°36'9 9.0
2014-Dec-20 05:33N 55°31' E 014°50'9 9.3
2014-Dec-20 04:34N 55°35' E 015°04'10 9.6
2014-Dec-20 03:33N 55°40' E 015°19'37614.3
2014-Dec-19 01:14N 59°46' E 024°11'1116.6
2014-Dec-19 00:33N 59°48' E 024°33'6015.0
2014-Dec-18 20:33N 60°12' E 026°23'1313.2
2014-Dec-18 19:33N 60°22' E 026°41'7 7.1
2014-Dec-18 18:31N 60°25' E 026°55'0 0.0
2014-Dec-18 17:31N 60°25' E 026°55'0 0.0
2014-Dec-18 16:31N 60°25' E 026°55'0 0.0
2014-Dec-18 15:31N 60°25' E 026°55'0 0.0
2014-Dec-18 14:31N 60°25' E 026°55'0 0.0
2014-Dec-18 13:31N 60°25' E 026°55'0 0.0
2014-Dec-18 12:31N 60°25' E 026°55'0 0.0
2014-Dec-18 11:32N 60°25' E 026°55'0 0.0
2014-Dec-18 10:32N 60°25' E 026°55'0 0.0
2014-Dec-18 09:32N 60°25' E 026°55'0 0.0
2014-Dec-18 08:31N 60°25' E 026°55'0 0.0
2014-Dec-18 07:31N 60°25' E 026°55'0 0.0
2014-Dec-18 06:31N 60°25' E 026°55'0 0.0
2014-Dec-18 05:31N 60°25' E 026°55'0 0.0
2014-Dec-18 04:31N 60°25' E 026°55'0 0.0
2014-Dec-18 03:31N 60°25' E 026°55'0 0.0
2014-Dec-18 02:31N 60°25' E 026°55'0 0.0
2014-Dec-18 01:31N 60°25' E 026°55'0 0.0
2014-Dec-18 00:31N 60°25' E 026°55'0 0.0
2014-Dec-17 23:31N 60°25' E 026°55'0 0.0
2014-Dec-17 22:31N 60°25' E 026°55'7 7.2
2014-Dec-17 21:34N 60°22' E 026°42'1414.3
2014-Dec-17 20:33N 60°12' E 026°23'1111.1
2014-Dec-17 19:33N 60°04' E 026°39'10710.3
2014-Dec-17 09:05N 59°53' E 030°12'0 0.0
2014-Dec-17 04:06N 59°53' E 030°12'0 0.0
2014-Dec-16 23:24N 59°53' E 030°12'0 0.0
2014-Dec-16 22:12N 59°53' E 030°12'0 0.0
2014-Dec-16 21:18N 59°53' E 030°12'0 0.0
2014-Dec-16 20:30N 59°53' E 030°12'0 0.0
2014-Dec-16 19:25N 59°53' E 030°12'0 0.0
2014-Dec-16 18:31N 59°53' E 030°12'0 0.0
2014-Dec-16 17:31N 59°53' E 030°12'0 0.0
2014-Dec-16 16:04N 59°53' E 030°12'0 0.0
2014-Dec-16 15:26N 59°53' E 030°12'1 1.3
2014-Dec-16 14:33N 59°54' E 030°14'0 0.0
2014-Dec-16 12:22N 59°54' E 030°14'0 0.0
2014-Dec-16 06:31N 59°54' E 030°14'90 3.7
2014-Dec-15 06:09N 60°01' E 027°15'711.0
2014-Dec-15 05:29N 59°58' E 027°02'1011.1
2014-Dec-15 04:33N 59°59' E 026°42'1111.3
2014-Dec-15 03:33N 59°57' E 026°20'5711.3
2014-Dec-14 22:33N 59°44' E 024°30'1211.4
2014-Dec-14 21:32N 59°41' E 024°08'1311.5
2014-Dec-14 20:26N 59°37' E 023°44'1111.8
2014-Dec-14 19:32N 59°33' E 023°25'36215.1
2014-Dec-13 19:33N 55°31' E 015°04'1717.5
2014-Dec-13 18:33N 55°22' E 014°37'1817.6
2014-Dec-13 17:33N 55°09' E 014°18'1716.8
2014-Dec-13 16:33N 54°59' E 013°54'6117.3
2014-Dec-13 13:03N 54°36' E 012°17'1416.6
2014-Dec-13 12:14N 54°25' E 012°04'5218.0
2014-Dec-13 09:22N 54°34' E 010°36'1215.2
2014-Dec-13 08:33N 54°28' E 010°17'8 7.6
2014-Dec-13 07:30N 54°22' E 010°08'3 2.7
2014-Dec-13 06:33N 54°22' E 010°04'6 5.7
2014-Dec-13 05:33N 54°21' E 009°54'6 5.8
2014-Dec-13 04:32N 54°20' E 009°45'7 6.2
2014-Dec-13 03:26N 54°15' E 009°37'5 5.2
2014-Dec-13 02:32N 54°11' E 009°32'7 6.1
2014-Dec-13 01:22N 54°08' E 009°21'5 6.8
2014-Dec-13 00:34N 54°03' E 009°18'7 6.9
2014-Dec-12 23:34N 53°57' E 009°14'3 2.8
2014-Dec-12 22:34N 53°55' E 009°11'2 1.9
2014-Dec-12 21:33N 53°53' E 009°08'5 5.0
2014-Dec-12 20:33N 53°52' E 009°16'1616.1
2014-Dec-12 19:34N 53°39' E 009°31'1212.4
2014-Dec-12 18:33N 53°33' E 009°50'4 4.3
2014-Dec-12 17:31N 53°32' E 009°57'0 0.0
2014-Dec-12 16:31N 53°32' E 009°57'0 0.0
2014-Dec-12 15:28N 53°32' E 009°57'0 0.0
2014-Dec-12 14:28N 53°32' E 009°57'0 0.0
2014-Dec-12 13:31N 53°32' E 009°57'0 0.0
2014-Dec-12 12:33N 53°32' E 009°57'0 0.0
2014-Dec-12 11:28N 53°32' E 009°57'  

Dump ship's entire track history